Time;durP1;ratioP1;P1;durP2;ratioP2;P2;SDS_P1;SDS_P2;PMS_P1;PMS_P2;Temp;Humidity;BMP_temperature;BMP_pressure;BME280_temperature;BME280_humidity;BME280_pressure;Samples;Min_cycle;Max_cycle;Signal;HPM_P1;HPM_P2
2023/06/05 00:01:01;;;;;;;3.58;1.63;;;;;;;;;;5069188;28;44468;-31
2023/06/05 00:03:29;;;;;;;3.45;2.10;;;;;;;;;;5069184;28;40304;-30
2023/06/05 00:05:58;;;;;;;4.43;1.80;;;;;;;;;;5078737;28;43700;-30
2023/06/05 00:08:27;;;;;;;3.30;1.85;;;;;;;;;;5067925;28;43235;-30
2023/06/05 00:10:55;;;;;;;4.10;2.20;;;;;;;;;;5069412;28;40469;-30
2023/06/05 00:13:22;;;;;;;2.70;1.90;;;;;;;;;;5068326;28;43814;-30
2023/06/05 00:15:51;;;;;;;5.82;2.42;;;;;;;;;;5068785;28;40359;-29
2023/06/05 00:18:20;;;;;;;4.10;1.88;;;;;;;;;;5068909;28;43044;-32
2023/06/05 00:20:48;;;;;;;3.50;2.03;;;;;;;;;;5069697;28;43881;-33
2023/06/05 00:23:16;;;;;;;3.53;1.73;;;;;;;;;;5067134;28;40731;-42
2023/06/05 00:25:45;;;;;;;3.33;1.95;;;;;;;;;;5082507;28;42776;-31
2023/06/05 00:28:13;;;;;;;4.38;1.70;;;;;;;;;;5074790;28;43771;-31
2023/06/05 00:30:41;;;;;;;4.35;2.28;;;;;;;;;;5082640;28;40205;-31
2023/06/05 00:33:09;;;;;;;4.28;2.08;;;;;;;;;;5086842;28;44088;-31
2023/06/05 00:35:37;;;;;;;2.83;2.00;;;;;;;;;;5082591;28;40155;-31
2023/06/05 00:38:06;;;;;;;4.28;2.25;;;;;;;;;;5088637;28;43832;-30
2023/06/05 00:40:34;;;;;;;4.60;1.80;;;;;;;;;;5088354;28;43456;-30
2023/06/05 00:43:05;;;;;;;2.45;2.00;;;;;;;;;;5069652;28;38891;-30
2023/06/05 00:45:35;;;;;;;3.88;2.15;;;;;;;;;;5069866;28;41489;-30
2023/06/05 00:48:03;;;;;;;3.17;1.90;;;;;;;;;;5069758;28;43393;-28
2023/06/05 00:50:33;;;;;;;3.85;2.42;;;;;;;;;;5063819;28;39924;-29
2023/06/05 00:53:01;;;;;;;2.85;2.00;;;;;;;;;;5063372;28;42126;-30
2023/06/05 00:55:29;;;;;;;2.75;2.17;;;;;;;;;;5088379;28;40515;-32
2023/06/05 00:57:57;;;;;;;4.40;1.92;;;;;;;;;;5087897;28;43136;-29
2023/06/05 01:00:26;;;;;;;2.83;2.00;;;;;;;;;;5085152;28;43653;-30
2023/06/05 01:02:56;;;;;;;2.55;1.83;;;;;;;;;;5079117;28;40744;-29
2023/06/05 01:05:26;;;;;;;3.47;2.05;;;;;;;;;;5059138;28;42211;-30
2023/06/05 01:07:54;;;;;;;3.00;2.13;;;;;;;;;;5088619;28;43425;-30
2023/06/05 01:10:22;;;;;;;4.28;2.08;;;;;;;;;;5069011;28;38860;-31
2023/06/05 01:12:51;;;;;;;2.75;2.17;;;;;;;;;;5078572;28;43735;-30
2023/06/05 01:15:28;;;;;;;2.47;2.13;;;;;;;;;;5083614;28;44468;-29
2023/06/05 01:17:58;;;;;;;2.45;2.15;;;;;;;;;;5084936;28;42971;-29
2023/06/05 01:20:32;;;;;;;2.60;1.77;;;;;;;;;;5068790;28;42231;-32
2023/06/05 01:23:01;;;;;;;3.78;2.45;;;;;;;;;;5079731;28;41731;-30
2023/06/05 01:25:30;;;;;;;2.70;2.17;;;;;;;;;;5074617;28;43215;-31
2023/06/05 01:27:59;;;;;;;4.35;2.20;;;;;;;;;;5085867;28;44561;-29
2023/06/05 01:30:28;;;;;;;2.55;2.35;;;;;;;;;;5069515;28;39248;-29
2023/06/05 01:33:02;;;;;;;2.25;1.80;;;;;;;;;;5087411;28;42925;-26
2023/06/05 01:35:33;;;;;;;3.25;2.10;;;;;;;;;;5078524;28;42750;-26
2023/06/05 01:38:05;;;;;;;3.40;2.47;;;;;;;;;;5066844;28;40377;-28
2023/06/05 01:40:34;;;;;;;3.53;2.30;;;;;;;;;;5066894;28;43087;-27
2023/06/05 01:43:02;;;;;;;4.47;2.10;;;;;;;;;;5064413;28;38847;-30
2023/06/05 01:45:30;;;;;;;3.20;2.28;;;;;;;;;;5083707;28;43122;-27
2023/06/05 01:47:59;;;;;;;3.03;2.15;;;;;;;;;;5081450;28;43044;-30
2023/06/05 01:50:29;;;;;;;3.08;2.25;;;;;;;;;;5082353;28;40633;-29
2023/06/05 01:53:02;;;;;;;3.17;2.10;;;;;;;;;;5074756;28;43362;-30
2023/06/05 01:55:31;;;;;;;4.45;2.67;;;;;;;;;;5070319;28;44170;-31
2023/06/05 01:57:59;;;;;;;2.75;2.22;;;;;;;;;;5060024;28;39343;-30
2023/06/05 02:00:27;;;;;;;4.03;2.10;;;;;;;;;;5076181;28;42906;-33
2023/06/05 02:02:56;;;;;;;4.03;2.10;;;;;;;;;;5086218;28;41532;-30
2023/06/05 02:05:29;;;;;;;4.20;2.22;;;;;;;;;;5083284;28;42632;-29
2023/06/05 02:07:58;;;;;;;2.83;2.35;;;;;;;;;;5065324;28;42923;-32
2023/06/05 02:10:28;;;;;;;3.25;2.22;;;;;;;;;;5072280;28;40000;-30
2023/06/05 02:12:58;;;;;;;3.10;2.10;;;;;;;;;;5082487;28;43850;-30
2023/06/05 02:15:26;;;;;;;2.53;2.10;;;;;;;;;;5063830;28;43238;-30
2023/06/05 02:17:54;;;;;;;3.15;2.25;;;;;;;;;;5062531;28;38889;-29
2023/06/05 02:20:24;;;;;;;3.33;2.60;;;;;;;;;;5083558;28;43410;-31
2023/06/05 02:22:54;;;;;;;3.50;2.40;;;;;;;;;;5079923;28;32563;-29
2023/06/05 02:25:25;;;;;;;4.95;2.47;;;;;;;;;;5082485;28;43200;-31
2023/06/05 02:27:54;;;;;;;3.22;2.35;;;;;;;;;;5080934;28;44195;-30
2023/06/05 02:30:23;;;;;;;4.70;2.40;;;;;;;;;;5063484;28;39013;-32
2023/06/05 02:32:56;;;;;;;3.45;2.45;;;;;;;;;;5064856;28;42006;-32
2023/06/05 02:35:25;;;;;;;2.78;2.17;;;;;;;;;;5054960;28;42245;-30
2023/06/05 02:37:53;;;;;;;3.90;2.80;;;;;;;;;;5068317;28;39139;-30
2023/06/05 02:40:21;;;;;;;3.38;2.40;;;;;;;;;;5086392;28;43811;-32
2023/06/05 02:42:50;;;;;;;2.97;2.17;;;;;;;;;;5051416;28;42161;-36
2023/06/05 02:45:18;;;;;;;3.33;2.58;;;;;;;;;;5051330;28;41639;-29
2023/06/05 02:47:48;;;;;;;2.58;2.20;;;;;;;;;;5068584;28;43479;-32
2023/06/05 02:50:16;;;;;;;4.88;2.17;;;;;;;;;;5047378;28;40132;-30
2023/06/05 02:52:49;;;;;;;3.60;2.38;;;;;;;;;;5048240;28;41914;-31
2023/06/05 02:55:29;;;;;;;3.40;2.45;;;;;;;;;;5048360;28;41931;-29
2023/06/05 02:58:00;;;;;;;4.15;2.30;;;;;;;;;;5047221;28;39095;-29
2023/06/05 03:00:39;;;;;;;3.90;2.28;;;;;;;;;;5050758;28;42475;-29
2023/06/05 03:03:08;;;;;;;3.17;2.40;;;;;;;;;;5067860;28;42112;-31
2023/06/05 03:05:37;;;;;;;2.83;2.53;;;;;;;;;;5083891;28;40853;-31
2023/06/05 03:08:10;;;;;;;4.68;2.35;;;;;;;;;;5068094;28;43259;-33
2023/06/05 03:10:38;;;;;;;3.50;2.50;;;;;;;;;;5061291;28;39003;-29
2023/06/05 03:13:07;;;;;;;4.20;2.40;;;;;;;;;;5062762;28;42322;-30
2023/06/05 03:15:37;;;;;;;3.33;2.50;;;;;;;;;;5058403;28;42122;-30
2023/06/05 03:18:09;;;;;;;5.20;2.80;;;;;;;;;;5066541;28;39702;-29
2023/06/05 03:20:38;;;;;;;4.70;2.60;;;;;;;;;;5061781;28;42410;-29
2023/06/05 03:23:08;;;;;;;3.20;2.60;;;;;;;;;;5065007;28;45138;-30
2023/06/05 03:25:36;;;;;;;3.72;2.58;;;;;;;;;;5067278;28;39019;-30
2023/06/05 03:28:05;;;;;;;2.83;2.35;;;;;;;;;;5068092;28;42438;-31
2023/06/05 03:30:33;;;;;;;4.45;2.78;;;;;;;;;;5081262;28;40560;-32
2023/06/05 03:33:02;;;;;;;3.92;2.67;;;;;;;;;;5061465;28;42174;-32
2023/06/05 03:35:34;;;;;;;3.35;2.47;;;;;;;;;;5079111;28;42712;-32
2023/06/05 03:38:05;;;;;;;3.28;2.53;;;;;;;;;;5067576;28;38547;-30
2023/06/05 03:40:34;;;;;;;3.13;2.83;;;;;;;;;;5079669;28;42836;-29
2023/06/05 03:43:02;;;;;;;4.43;2.60;;;;;;;;;;5060480;28;41580;-30
2023/06/05 03:45:33;;;;;;;2.55;2.30;;;;;;;;;;5067469;28;39443;-31
2023/06/05 03:48:02;;;;;;;2.50;2.17;;;;;;;;;;5067200;28;41113;-32
2023/06/05 03:50:38;;;;;;;3.60;2.28;;;;;;;;;;5061960;28;43646;-35
2023/06/05 03:53:08;;;;;;;4.35;2.55;;;;;;;;;;5059520;28;42263;-37
2023/06/05 03:55:41;;;;;;;3.42;2.58;;;;;;;;;;5067084;28;42397;-30
2023/06/05 03:58:14;;;;;;;3.53;2.50;;;;;;;;;;5067145;28;40641;-31
2023/06/05 04:00:45;;;;;;;2.92;2.45;;;;;;;;;;5053943;28;43766;-41
2023/06/05 04:03:13;;;;;;;2.65;2.38;;;;;;;;;;5067141;28;41986;-41
2023/06/05 04:05:43;;;;;;;2.88;2.40;;;;;;;;;;5065734;28;40730;-39
2023/06/05 04:08:11;;;;;;;2.47;2.28;;;;;;;;;;5066291;28;42471;-39
2023/06/05 04:10:39;;;;;;;3.72;2.50;;;;;;;;;;5067124;28;42206;-40
2023/06/05 04:13:07;;;;;;;2.67;2.45;;;;;;;;;;5067420;28;38943;-39
2023/06/05 04:15:36;;;;;;;2.85;2.55;;;;;;;;;;5061437;28;42969;-41
2023/06/05 04:18:05;;;;;;;2.97;2.42;;;;;;;;;;5082834;28;40032;-37
2023/06/05 04:20:33;;;;;;;3.13;2.40;;;;;;;;;;5066953;28;41346;-41
2023/06/05 04:23:04;;;;;;;4.07;2.58;;;;;;;;;;5065409;28;43044;-39
2023/06/05 04:25:34;;;;;;;2.78;2.50;;;;;;;;;;5061555;28;38813;-41
2023/06/05 04:28:03;;;;;;;2.75;2.47;;;;;;;;;;5063816;28;41229;-39
2023/06/05 04:30:31;;;;;;;2.42;2.22;;;;;;;;;;5070208;28;42082;-42
2023/06/05 04:33:00;;;;;;;4.18;2.55;;;;;;;;;;5070142;28;39530;-39
2023/06/05 04:35:28;;;;;;;3.53;2.33;;;;;;;;;;5059865;28;41908;-38
2023/06/05 04:37:56;;;;;;;2.58;2.38;;;;;;;;;;5082541;28;40407;-38
2023/06/05 04:40:26;;;;;;;3.53;2.67;;;;;;;;;;5070022;28;42462;-40
2023/06/05 04:42:54;;;;;;;3.35;2.83;;;;;;;;;;5064982;28;42173;-41
2023/06/05 04:45:25;;;;;;;3.67;2.80;;;;;;;;;;5069275;28;39098;-36
2023/06/05 04:47:53;;;;;;;3.47;2.47;;;;;;;;;;5069872;28;42222;-41
2023/06/05 04:50:22;;;;;;;3.05;2.28;;;;;;;;;;5065176;28;41667;-43
2023/06/05 04:52:52;;;;;;;3.35;2.60;;;;;;;;;;5060070;28;39312;-40
2023/06/05 04:55:20;;;;;;;3.55;2.63;;;;;;;;;;5069891;28;42064;-39
2023/06/05 04:57:53;;;;;;;3.83;2.70;;;;;;;;;;5069875;28;40858;-39
2023/06/05 05:00:21;;;;;;;3.05;2.40;;;;;;;;;;5060633;28;41406;-42
2023/06/05 05:02:50;;;;;;;3.83;2.80;;;;;;;;;;5055621;28;43257;-39
2023/06/05 05:05:19;;;;;;;3.67;2.75;;;;;;;;;;5067825;28;41129;-42
2023/06/05 05:07:49;;;;;;;3.75;2.50;;;;;;;;;;5049598;28;41555;-38
2023/06/05 05:10:17;;;;;;;4.68;2.63;;;;;;;;;;5051018;28;42260;-40
2023/06/05 05:12:46;;;;;;;3.10;2.40;;;;;;;;;;5052571;28;38852;-39
2023/06/05 05:15:17;;;;;;;2.42;2.22;;;;;;;;;;5049513;28;41101;-39
2023/06/05 05:17:45;;;;;;;3.67;2.42;;;;;;;;;;5049125;28;41722;-38
2023/06/05 05:20:14;;;;;;;4.30;2.70;;;;;;;;;;5068166;28;42663;-41
2023/06/05 05:22:43;;;;;;;3.33;2.63;;;;;;;;;;5068234;28;44303;-42
2023/06/05 05:25:11;;;;;;;5.72;2.90;;;;;;;;;;5062022;28;39345;-40
2023/06/05 05:27:39;;;;;;;2.72;2.15;;;;;;;;;;5049472;28;40756;-39
2023/06/05 05:30:08;;;;;;;3.00;2.40;;;;;;;;;;5049216;28;42552;-40
2023/06/05 05:32:38;;;;;;;4.50;2.60;;;;;;;;;;5066105;28;40718;-41
2023/06/05 05:35:08;;;;;;;4.55;2.38;;;;;;;;;;5051003;28;41921;-39
2023/06/05 05:37:36;;;;;;;2.50;2.30;;;;;;;;;;5051301;28;43425;-38
2023/06/05 05:40:05;;;;;;;5.93;3.05;;;;;;;;;;5067022;28;41426;-39
2023/06/05 05:42:33;;;;;;;7.07;3.00;;;;;;;;;;5067988;28;43180;-40
2023/06/05 05:45:01;;;;;;;3.13;2.60;;;;;;;;;;5068040;28;41052;-42
2023/06/05 05:47:29;;;;;;;5.20;3.35;;;;;;;;;;5068108;28;43706;-41
2023/06/05 05:49:59;;;;;;;4.85;2.60;;;;;;;;;;5067591;28;43741;-40
2023/06/05 05:52:26;;;;;;;4.55;3.20;;;;;;;;;;5066266;28;40619;-40
2023/06/05 05:54:55;;;;;;;3.70;2.70;;;;;;;;;;5069287;28;43170;-41
2023/06/05 05:57:22;;;;;;;6.75;2.97;;;;;;;;;;5066735;28;43686;-40
2023/06/05 05:59:50;;;;;;;6.82;2.70;;;;;;;;;;5065723;28;41061;-38
2023/06/05 06:02:18;;;;;;;6.78;3.42;;;;;;;;;;5068527;28;42055;-37
2023/06/05 06:04:47;;;;;;;5.03;2.90;;;;;;;;;;5073222;28;40017;-41
2023/06/05 06:07:16;;;;;;;7.07;3.47;;;;;;;;;;5054255;28;41327;-42
2023/06/05 06:09:45;;;;;;;6.18;3.00;;;;;;;;;;5066451;28;43307;-40
2023/06/05 06:12:13;;;;;;;5.70;3.88;;;;;;;;;;5072767;28;42505;-38
2023/06/05 06:14:41;;;;;;;8.90;4.10;;;;;;;;;;5066622;28;43801;-39
2023/06/05 06:17:10;;;;;;;7.32;4.10;;;;;;;;;;5074413;28;43550;-38
2023/06/05 06:19:39;;;;;;;11.02;4.70;;;;;;;;;;5048975;28;39714;-41
2023/06/05 06:22:11;;;;;;;8.70;4.32;;;;;;;;;;5074903;28;42638;-39
2023/06/05 06:24:41;;;;;;;19.40;4.90;;;;;;;;;;5081060;28;43300;-40
2023/06/05 06:27:10;;;;;;;10.07;4.20;;;;;;;;;;5066971;28;42588;-39
2023/06/05 06:29:58;;;;;;;9.63;5.00;;;;;;;;;;5064099;28;43484;-38
2023/06/05 06:32:26;;;;;;;12.52;4.20;;;;;;;;;;5071062;28;40079;-41
2023/06/05 06:34:55;;;;;;;11.63;4.90;;;;;;;;;;5066850;28;43531;-41
2023/06/05 06:37:24;;;;;;;10.05;4.40;;;;;;;;;;5066219;28;43167;-41
2023/06/05 06:39:53;;;;;;;8.48;4.10;;;;;;;;;;5067597;28;40212;-38
2023/06/05 06:42:21;;;;;;;6.78;4.00;;;;;;;;;;5069811;28;43651;-39
2023/06/05 06:44:59;;;;;;;8.20;4.20;;;;;;;;;;5053601;28;43796;-42
2023/06/05 06:47:27;;;;;;;7.60;4.07;;;;;;;;;;5066982;28;42699;-42
2023/06/05 06:49:56;;;;;;;7.45;4.10;;;;;;;;;;5065358;28;44098;-40
2023/06/05 06:52:24;;;;;;;10.07;4.70;;;;;;;;;;5068905;28;41335;-41
2023/06/05 06:54:54;;;;;;;8.10;5.07;;;;;;;;;;5066030;28;42696;-26
2023/06/05 06:57:22;;;;;;;9.32;4.68;;;;;;;;;;5065687;28;43350;-26
2023/06/05 06:59:50;;;;;;;9.48;4.55;;;;;;;;;;5066573;28;39915;-30
2023/06/05 07:02:19;;;;;;;13.77;4.38;;;;;;;;;;5079117;28;41571;-26
2023/06/05 07:04:48;;;;;;;15.18;4.85;;;;;;;;;;5069738;28;43630;-27
2023/06/05 07:07:16;;;;;;;11.40;4.57;;;;;;;;;;5080261;28;40204;-25
2023/06/05 07:09:45;;;;;;;6.93;4.32;;;;;;;;;;5066857;28;43302;-26
2023/06/05 07:12:15;;;;;;;19.17;6.05;;;;;;;;;;5065702;28;40070;-26
2023/06/05 07:14:43;;;;;;;15.95;5.35;;;;;;;;;;5067013;28;42273;-26
2023/06/05 07:17:11;;;;;;;16.05;4.60;;;;;;;;;;5052530;28;42670;-26
2023/06/05 07:19:39;;;;;;;7.95;4.70;;;;;;;;;;5066467;28;40045;-25
2023/06/05 07:22:07;;;;;;;16.75;4.65;;;;;;;;;;5070806;28;42844;-27
2023/06/05 07:24:36;;;;;;;8.93;4.05;;;;;;;;;;5064220;28;43331;-26
2023/06/05 07:27:04;;;;;;;13.25;4.15;;;;;;;;;;5065263;28;42126;-26
2023/06/05 07:29:33;;;;;;;10.57;4.40;;;;;;;;;;5069812;28;43582;-27
2023/06/05 07:32:05;;;;;;;14.20;4.13;;;;;;;;;;5065607;28;41334;-25
2023/06/05 07:34:34;;;;;;;17.73;5.05;;;;;;;;;;5072419;28;41489;-27
2023/06/05 07:37:02;;;;;;;19.52;4.90;;;;;;;;;;5063897;28;44407;-24
2023/06/05 07:39:30;;;;;;;11.95;4.78;;;;;;;;;;5064738;28;40367;-32
2023/06/05 07:41:58;;;;;;;8.07;3.95;;;;;;;;;;5070295;28;43710;-26
2023/06/05 07:44:26;;;;;;;8.90;3.95;;;;;;;;;;5065936;28;44325;-26
2023/06/05 07:46:55;;;;;;;6.28;3.90;;;;;;;;;;5066872;28;39907;-26
2023/06/05 07:49:24;;;;;;;13.82;4.53;;;;;;;;;;5068045;28;42208;-26
2023/06/05 07:51:52;;;;;;;6.63;3.78;;;;;;;;;;5077051;28;43322;-26
2023/06/05 07:54:21;;;;;;;8.10;3.97;;;;;;;;;;5066276;28;42558;-26
2023/06/05 07:56:50;;;;;;;8.63;4.20;;;;;;;;;;5065404;28;43989;-27
2023/06/05 07:59:24;;;;;;;8.70;3.47;;;;;;;;;;5047119;28;40499;-27
2023/06/05 08:01:53;;;;;;;9.50;4.60;;;;;;;;;;5067273;28;43695;-27
2023/06/05 08:04:24;;;;;;;9.85;4.18;;;;;;;;;;5070157;28;43108;-26
2023/06/05 08:06:53;;;;;;;11.32;4.57;;;;;;;;;;5076403;28;41182;-27
2023/06/05 08:09:21;;;;;;;14.55;4.25;;;;;;;;;;5068581;28;43664;-26
2023/06/05 08:11:49;;;;;;;9.82;4.00;;;;;;;;;;5068791;28;44430;-27
2023/06/05 08:14:17;;;;;;;8.90;4.07;;;;;;;;;;5071196;28;40702;-27
2023/06/05 08:16:45;;;;;;;8.80;4.20;;;;;;;;;;5068598;28;44432;-26
2023/06/05 08:19:13;;;;;;;14.45;4.30;;;;;;;;;;5068882;28;40454;-27
2023/06/05 08:21:43;;;;;;;14.13;4.00;;;;;;;;;;5057507;28;41218;-26
2023/06/05 08:24:11;;;;;;;10.55;3.83;;;;;;;;;;5068466;28;44040;-26
2023/06/05 08:26:39;;;;;;;14.00;4.38;;;;;;;;;;5053570;28;39193;-27
2023/06/05 08:29:07;;;;;;;9.63;4.10;;;;;;;;;;5066898;28;43502;-27
2023/06/05 08:31:36;;;;;;;12.60;3.88;;;;;;;;;;5068780;28;44324;-27
2023/06/05 08:34:04;;;;;;;15.63;4.13;;;;;;;;;;5066693;28;41949;-26
2023/06/05 08:36:35;;;;;;;19.05;4.95;;;;;;;;;;5071086;28;43619;-27
2023/06/05 08:39:05;;;;;;;24.95;5.10;;;;;;;;;;5064631;28;41273;-27
2023/06/05 08:41:33;;;;;;;13.10;4.68;;;;;;;;;;5074630;28;43770;-27
2023/06/05 08:44:01;;;;;;;13.85;4.07;;;;;;;;;;5067415;28;43785;-32
2023/06/05 08:46:29;;;;;;;8.05;4.40;;;;;;;;;;5067252;28;40515;-29
2023/06/05 08:48:57;;;;;;;12.27;5.32;;;;;;;;;;5067137;28;43059;-30
2023/06/05 08:51:25;;;;;;;12.43;4.60;;;;;;;;;;5075125;28;43290;-27
2023/06/05 08:53:55;;;;;;;9.68;4.30;;;;;;;;;;5068157;28;40147;-28
2023/06/05 08:56:25;;;;;;;19.48;5.00;;;;;;;;;;5067034;28;42328;-28
2023/06/05 08:58:54;;;;;;;14.30;5.18;;;;;;;;;;5067504;28;40308;-34
2023/06/05 09:01:23;;;;;;;12.60;4.53;;;;;;;;;;5079694;28;43229;-30
2023/06/05 09:03:51;;;;;;;37.97;5.68;;;;;;;;;;5087024;28;43359;-31
2023/06/05 09:06:19;;;;;;;25.33;5.03;;;;;;;;;;5075546;28;42743;-33
2023/06/05 09:08:47;;;;;;;20.52;5.13;;;;;;;;;;5088251;28;42950;-31
2023/06/05 09:11:22;;;;;;;14.63;4.65;;;;;;;;;;5079504;28;44394;-30
2023/06/05 09:13:51;;;;;;;17.98;4.15;;;;;;;;;;5085275;28;41430;-30
2023/06/05 09:16:20;;;;;;;15.88;4.18;;;;;;;;;;5084786;28;42370;-33
2023/06/05 09:18:54;;;;;;;14.05;3.72;;;;;;;;;;5089050;28;43128;-30
2023/06/05 09:21:28;;;;;;;11.77;3.53;;;;;;;;;;5083556;28;42071;-33
2023/06/05 09:24:13;;;;;;;11.07;3.83;;;;;;;;;;5083924;28;42994;-32
2023/06/05 09:26:52;;;;;;;11.95;3.58;;;;;;;;;;5085054;28;40740;-34
2023/06/05 09:29:21;;;;;;;14.32;3.22;;;;;;;;;;5087789;28;42384;-33
2023/06/05 09:31:50;;;;;;;14.25;3.55;;;;;;;;;;5076535;28;44373;-30
2023/06/05 09:34:21;;;;;;;12.98;3.50;;;;;;;;;;5087730;28;41494;-30
2023/06/05 09:36:49;;;;;;;11.27;2.63;;;;;;;;;;5083593;28;43536;-31
2023/06/05 09:39:17;;;;;;;9.63;3.38;;;;;;;;;;5087109;28;44391;-35
2023/06/05 09:41:45;;;;;;;6.05;2.58;;;;;;;;;;5088159;28;39879;-32
2023/06/05 09:44:13;;;;;;;9.93;3.00;;;;;;;;;;5087772;28;43992;-30
2023/06/05 09:46:52;;;;;;;10.00;3.10;;;;;;;;;;5073705;28;40110;-32
2023/06/05 09:49:20;;;;;;;9.93;2.70;;;;;;;;;;5088016;28;42552;-30
2023/06/05 09:51:48;;;;;;;8.00;3.20;;;;;;;;;;5074792;28;43296;-36
2023/06/05 09:54:16;;;;;;;7.50;2.67;;;;;;;;;;5084679;28;41577;-31
2023/06/05 09:56:48;;;;;;;8.20;2.92;;;;;;;;;;5067953;28;41909;-30
2023/06/05 09:59:20;;;;;;;8.88;3.00;;;;;;;;;;5078287;28;43914;-30
2023/06/05 10:01:48;;;;;;;5.80;3.00;;;;;;;;;;5065577;28;40246;-31
2023/06/05 10:04:17;;;;;;;8.27;3.00;;;;;;;;;;5067380;28;42670;-42
2023/06/05 10:06:46;;;;;;;7.85;2.63;;;;;;;;;;5072486;28;40863;-42
2023/06/05 10:09:14;;;;;;;6.65;2.78;;;;;;;;;;5066887;28;43214;-42
2023/06/05 10:11:42;;;;;;;5.60;2.80;;;;;;;;;;5068779;28;43008;-43
2023/06/05 10:14:10;;;;;;;4.22;2.72;;;;;;;;;;5063293;28;40096;-42
2023/06/05 10:16:38;;;;;;;6.10;2.58;;;;;;;;;;5067151;28;42181;-37
2023/06/05 10:19:06;;;;;;;5.70;3.03;;;;;;;;;;5066035;28;43130;-40
2023/06/05 10:21:36;;;;;;;4.40;2.70;;;;;;;;;;5073406;28;41362;-42
2023/06/05 10:24:04;;;;;;;6.25;2.90;;;;;;;;;;5066699;28;42333;-40
2023/06/05 10:26:47;;;;;;;6.70;2.78;;;;;;;;;;5075388;28;43638;-42
2023/06/05 10:29:19;;;;;;;6.30;2.58;;;;;;;;;;5064051;28;42690;-40
2023/06/05 10:31:48;;;;;;;5.97;3.13;;;;;;;;;;5067304;28;43418;-42
2023/06/05 10:34:23;;;;;;;8.05;2.30;;;;;;;;;;5067521;28;40954;-42
2023/06/05 10:37:01;;;;;;;5.40;2.60;;;;;;;;;;5072196;28;42594;-42
2023/06/05 10:39:29;;;;;;;5.05;2.80;;;;;;;;;;5047808;28;41877;-41
2023/06/05 10:41:58;;;;;;;5.88;2.83;;;;;;;;;;5048054;28;39170;-43
2023/06/05 10:44:47;;;;;;;4.97;2.47;;;;;;;;;;5070955;28;42254;-42
2023/06/05 10:47:33;;;;;;;4.60;2.60;;;;;;;;;;5060013;28;43472;-44
2023/06/05 10:50:19;;;;;;;5.30;2.92;;;;;;;;;;5072457;28;41331;-42
2023/06/05 10:52:49;;;;;;;8.85;3.13;;;;;;;;;;5076844;28;43390;-43
2023/06/05 10:55:17;;;;;;;5.95;2.83;;;;;;;;;;5085214;28;40186;-40
2023/06/05 10:58:03;;;;;;;5.53;3.10;;;;;;;;;;5086516;28;42371;-41
2023/06/05 11:00:31;;;;;;;6.13;3.22;;;;;;;;;;5072182;28;43574;-41
2023/06/05 11:03:00;;;;;;;3.55;2.55;;;;;;;;;;5072404;28;41389;-39
2023/06/05 11:05:29;;;;;;;9.18;3.03;;;;;;;;;;5049222;28;42212;-39
2023/06/05 11:08:15;;;;;;;4.53;2.95;;;;;;;;;;5064794;28;43456;-39
2023/06/05 11:11:02;;;;;;;6.93;2.97;;;;;;;;;;5064870;28;41221;-38
2023/06/05 11:13:44;;;;;;;5.70;3.30;;;;;;;;;;5066178;28;43309;-40
2023/06/05 11:16:26;;;;;;;7.80;3.47;;;;;;;;;;5069693;28;41397;-38
2023/06/05 11:18:54;;;;;;;5.20;2.85;;;;;;;;;;5063199;28;42604;-40
2023/06/05 11:21:23;;;;;;;6.60;3.00;;;;;;;;;;5066042;28;44385;-38
2023/06/05 11:24:10;;;;;;;6.47;2.78;;;;;;;;;;5046294;28;39772;-39
2023/06/05 11:26:43;;;;;;;5.78;3.13;;;;;;;;;;5067935;28;42255;-41
2023/06/05 11:29:15;;;;;;;6.15;3.38;;;;;;;;;;5062871;28;43018;-41
2023/06/05 11:31:44;;;;;;;7.28;3.22;;;;;;;;;;5065551;28;40713;-42
2023/06/05 11:34:13;;;;;;;5.32;3.15;;;;;;;;;;5064328;28;42456;-41
2023/06/05 11:36:40;;;;;;;4.43;3.30;;;;;;;;;;5065314;28;41287;-40
2023/06/05 11:39:10;;;;;;;4.57;2.95;;;;;;;;;;5064001;28;43697;-39
2023/06/05 11:41:45;;;;;;;4.07;3.30;;;;;;;;;;5064933;28;43398;-41
2023/06/05 11:44:13;;;;;;;6.85;3.25;;;;;;;;;;5064922;28;41345;-40
2023/06/05 11:46:41;;;;;;;4.88;3.40;;;;;;;;;;5069212;28;43233;-41
2023/06/05 11:49:10;;;;;;;4.28;3.10;;;;;;;;;;5065285;28;44379;-42
2023/06/05 11:51:38;;;;;;;4.45;2.80;;;;;;;;;;5078335;28;41206;-39
2023/06/05 11:54:14;;;;;;;4.18;3.35;;;;;;;;;;5058661;28;41838;-40
2023/06/05 11:56:48;;;;;;;7.38;3.33;;;;;;;;;;5071289;28;44433;-41
2023/06/05 11:59:17;;;;;;;5.57;3.03;;;;;;;;;;5061546;28;43453;-41
2023/06/05 12:01:45;;;;;;;4.65;3.15;;;;;;;;;;5079474;28;43639;-41
2023/06/05 12:04:14;;;;;;;6.20;3.55;;;;;;;;;;5085810;28;41065;-40
2023/06/05 12:06:47;;;;;;;5.53;2.80;;;;;;;;;;5079670;28;42923;-41
2023/06/05 12:09:15;;;;;;;6.43;3.38;;;;;;;;;;5067040;28;44052;-41
2023/06/05 12:11:44;;;;;;;7.93;3.25;;;;;;;;;;5068856;28;41542;-39
2023/06/05 12:14:12;;;;;;;12.45;3.50;;;;;;;;;;5064978;28;43605;-40
2023/06/05 12:16:43;;;;;;;7.03;3.65;;;;;;;;;;5064168;28;43727;-41
2023/06/05 12:19:12;;;;;;;6.25;3.55;;;;;;;;;;5061805;28;40865;-40
2023/06/05 12:21:43;;;;;;;7.00;3.75;;;;;;;;;;5071672;28;42444;-38
2023/06/05 12:24:11;;;;;;;9.68;3.20;;;;;;;;;;5063911;28;40132;-38
2023/06/05 12:26:53;;;;;;;5.50;3.28;;;;;;;;;;5066751;28;42947;-41
2023/06/05 12:29:22;;;;;;;4.85;3.35;;;;;;;;;;5064011;28;43470;-40
2023/06/05 12:31:51;;;;;;;4.63;3.45;;;;;;;;;;5064890;28;40280;-41
2023/06/05 12:34:20;;;;;;;4.95;2.95;;;;;;;;;;5064848;28;43483;-40
2023/06/05 12:36:48;;;;;;;6.25;3.42;;;;;;;;;;5070577;28;43604;-39
2023/06/05 12:39:17;;;;;;;7.22;3.03;;;;;;;;;;5064290;28;40776;-41
2023/06/05 12:41:45;;;;;;;3.58;2.88;;;;;;;;;;5064584;28;42780;-41
2023/06/05 12:44:13;;;;;;;3.63;2.85;;;;;;;;;;5066851;28;39943;-42
2023/06/05 12:46:41;;;;;;;4.82;2.88;;;;;;;;;;5073371;28;42923;-42
2023/06/05 12:49:11;;;;;;;4.97;3.13;;;;;;;;;;5064740;28;43601;-42
2023/06/05 12:51:39;;;;;;;5.65;2.90;;;;;;;;;;5068364;28;40267;-40
2023/06/05 12:54:07;;;;;;;7.13;2.92;;;;;;;;;;5060242;28;41860;-39
2023/06/05 12:56:36;;;;;;;5.57;3.08;;;;;;;;;;5069525;28;44259;-41
2023/06/05 12:59:04;;;;;;;5.00;2.83;;;;;;;;;;5067354;28;40145;-41
2023/06/05 13:01:32;;;;;;;4.85;3.30;;;;;;;;;;5075565;28;42586;-39
2023/06/05 13:04:00;;;;;;;3.33;3.03;;;;;;;;;;5088413;28;33577;-41
2023/06/05 13:06:29;;;;;;;5.45;3.17;;;;;;;;;;5087780;28;43679;-38
2023/06/05 13:08:57;;;;;;;5.65;2.88;;;;;;;;;;5087600;28;43006;-40
2023/06/05 13:11:25;;;;;;;3.60;2.40;;;;;;;;;;5080257;28;40358;-39
2023/06/05 13:13:53;;;;;;;9.25;3.42;;;;;;;;;;5087975;28;43525;-41
2023/06/05 13:16:21;;;;;;;8.30;2.85;;;;;;;;;;5086066;28;43671;-40
2023/06/05 13:18:49;;;;;;;5.32;2.90;;;;;;;;;;5069807;28;40137;-41
2023/06/05 13:21:17;;;;;;;3.90;2.80;;;;;;;;;;5078078;28;42792;-41
2023/06/05 13:23:46;;;;;;;6.10;3.10;;;;;;;;;;5087578;28;43132;-41
2023/06/05 13:26:14;;;;;;;4.72;2.63;;;;;;;;;;5087218;28;43714;-42
2023/06/05 13:28:44;;;;;;;7.38;2.65;;;;;;;;;;5075753;28;43459;-40
2023/06/05 13:31:13;;;;;;;4.88;2.83;;;;;;;;;;5087154;28;40172;-41
2023/06/05 13:33:41;;;;;;;6.88;3.05;;;;;;;;;;5073890;28;43614;-37
2023/06/05 13:36:09;;;;;;;7.00;2.80;;;;;;;;;;5085457;28;44083;-42
2023/06/05 13:38:37;;;;;;;6.80;3.38;;;;;;;;;;5087122;28;40992;-42
2023/06/05 13:41:07;;;;;;;5.15;3.20;;;;;;;;;;5087197;28;42433;-39
2023/06/05 13:43:35;;;;;;;3.72;2.75;;;;;;;;;;5087036;28;43273;-42
2023/06/05 13:46:03;;;;;;;5.43;2.78;;;;;;;;;;5077755;28;41352;-40
2023/06/05 13:48:33;;;;;;;8.02;3.42;;;;;;;;;;5083209;28;44197;-40
2023/06/05 13:51:01;;;;;;;6.60;2.92;;;;;;;;;;5085494;28;40457;-40
2023/06/05 13:53:33;;;;;;;5.43;2.85;;;;;;;;;;5087718;28;43663;-40
2023/06/05 13:56:02;;;;;;;3.40;2.25;;;;;;;;;;5085760;28;43597;-39
2023/06/05 13:58:31;;;;;;;5.00;2.55;;;;;;;;;;5068056;28;39771;-41
2023/06/05 14:00:59;;;;;;;5.03;2.83;;;;;;;;;;5065207;28;43290;-40
2023/06/05 14:03:27;;;;;;;5.57;2.58;;;;;;;;;;5067690;28;44021;-42
2023/06/05 14:05:55;;;;;;;5.28;2.95;;;;;;;;;;5065315;28;41354;-41
2023/06/05 14:08:23;;;;;;;3.40;2.78;;;;;;;;;;5067643;28;43662;-41
2023/06/05 14:10:51;;;;;;;7.25;2.70;;;;;;;;;;5073390;28;40895;-36
2023/06/05 14:13:19;;;;;;;3.83;2.50;;;;;;;;;;5066535;28;42488;-39
2023/06/05 14:15:49;;;;;;;5.55;3.20;;;;;;;;;;5066522;28;44492;-39
2023/06/05 14:18:17;;;;;;;4.18;2.55;;;;;;;;;;5066637;28;40067;-42
2023/06/05 14:20:45;;;;;;;5.47;2.72;;;;;;;;;;5068606;28;43492;-42
2023/06/05 14:23:14;;;;;;;6.05;2.42;;;;;;;;;;5047386;28;42229;-42
2023/06/05 14:25:42;;;;;;;5.60;2.90;;;;;;;;;;5066178;28;40229;-39
2023/06/05 14:28:10;;;;;;;14.15;3.13;;;;;;;;;;5075457;28;42730;-42
2023/06/05 14:30:38;;;;;;;10.20;3.03;;;;;;;;;;5073049;28;44165;-42
2023/06/05 14:33:07;;;;;;;8.15;2.70;;;;;;;;;;5063143;28;41203;-39
2023/06/05 14:35:35;;;;;;;9.85;2.60;;;;;;;;;;5067134;28;44017;-41
2023/06/05 14:38:03;;;;;;;10.50;2.80;;;;;;;;;;5070162;28;39785;-38
2023/06/05 14:40:32;;;;;;;17.33;3.13;;;;;;;;;;5071032;28;42705;-40
2023/06/05 14:43:00;;;;;;;48.15;4.60;;;;;;;;;;5069017;28;43945;-40
2023/06/05 14:45:28;;;;;;;34.38;4.05;;;;;;;;;;5052544;28;40289;-39
2023/06/05 14:47:56;;;;;;;94.90;9.52;;;;;;;;;;5064866;28;42764;-40
2023/06/05 14:50:25;;;;;;;53.00;6.97;;;;;;;;;;5068011;28;43354;-41
2023/06/05 14:52:53;;;;;;;54.67;8.48;;;;;;;;;;5066483;28;40420;-41
2023/06/05 14:55:21;;;;;;;45.75;7.07;;;;;;;;;;5065995;28;43497;-41